createdAt,value
2018-06-24T00:01:01.418Z,3.40
2018-06-24T00:03:05.983Z,3.37
2018-06-24T00:05:10.360Z,3.80
2018-06-24T00:07:14.841Z,3.97
2018-06-24T00:09:19.310Z,3.70
2018-06-24T00:11:23.635Z,3.50
2018-06-24T00:13:28.023Z,3.60
2018-06-24T00:15:32.454Z,3.70
2018-06-24T00:17:36.814Z,3.70
2018-06-24T00:19:41.327Z,3.63
2018-06-24T00:21:45.752Z,3.30
2018-06-24T00:23:50.177Z,3.10
2018-06-24T00:25:54.667Z,3.83
2018-06-24T00:27:59.089Z,3.23
2018-06-24T00:30:03.523Z,5.07
2018-06-24T00:32:07.968Z,5.37
2018-06-24T00:34:12.696Z,5.80
2018-06-24T00:36:17.395Z,6.30
2018-06-24T00:38:22.213Z,7.10
2018-06-24T00:40:26.658Z,6.37
2018-06-24T00:42:31.342Z,4.30
2018-06-24T00:44:35.823Z,3.53
2018-06-24T00:46:40.515Z,3.60
2018-06-24T00:48:45.064Z,3.40
2018-06-24T00:50:49.463Z,3.37
2018-06-24T00:52:53.863Z,3.40
2018-06-24T00:54:58.483Z,3.40
2018-06-24T00:57:03.071Z,3.30
2018-06-24T00:59:08.443Z,3.57
2018-06-24T01:01:13.192Z,3.80
2018-06-24T01:03:20.199Z,3.70
2018-06-24T01:05:24.840Z,3.70
2018-06-24T01:07:29.380Z,3.70
2018-06-24T01:09:34.023Z,3.70
2018-06-24T01:11:38.615Z,4.00
2018-06-24T01:13:43.175Z,3.30
2018-06-24T01:15:47.480Z,3.20
2018-06-24T01:17:51.819Z,4.60
2018-06-24T01:19:57.891Z,3.70
2018-06-24T01:22:02.308Z,3.37
2018-06-24T01:24:06.644Z,3.60
2018-06-24T01:26:11.206Z,3.97
2018-06-24T01:28:16.566Z,3.40
2018-06-24T01:30:20.962Z,3.77
2018-06-24T01:32:25.636Z,3.67
2018-06-24T01:34:29.952Z,3.50
2018-06-24T01:36:34.332Z,3.90
2018-06-24T01:38:38.640Z,3.90
2018-06-24T01:40:42.960Z,3.77
2018-06-24T01:42:47.358Z,4.07
2018-06-24T01:44:52.390Z,3.97
2018-06-24T01:46:56.769Z,3.97
2018-06-24T01:49:01.120Z,3.47
2018-06-24T01:51:05.419Z,3.87
2018-06-24T01:53:10.315Z,4.20
2018-06-24T01:55:14.695Z,3.63
2018-06-24T01:57:19.141Z,3.40
2018-06-24T01:59:23.542Z,4.03
2018-06-24T02:01:28.086Z,3.80
2018-06-24T02:03:32.519Z,3.73
2018-06-24T02:05:36.853Z,3.80
2018-06-24T02:07:41.278Z,3.83
2018-06-24T02:09:45.647Z,3.90
2018-06-24T02:11:49.997Z,3.87
2018-06-24T02:13:54.358Z,3.80
2018-06-24T02:15:58.721Z,3.50
2018-06-24T02:18:03.056Z,4.10
2018-06-24T02:20:07.382Z,4.23
2018-06-24T02:22:11.769Z,4.80
2018-06-24T02:24:16.183Z,3.97
2018-06-24T02:26:20.510Z,4.10
2018-06-24T02:28:24.839Z,4.40
2018-06-24T02:30:29.230Z,4.10
2018-06-24T02:32:33.582Z,3.83
2018-06-24T02:34:37.947Z,4.50
2018-06-24T02:36:42.298Z,3.53
2018-06-24T02:38:46.685Z,3.83
2018-06-24T02:40:51.004Z,4.00
2018-06-24T02:42:55.413Z,4.30
2018-06-24T02:45:00.332Z,3.83
2018-06-24T02:47:04.671Z,4.27
2018-06-24T02:49:09.050Z,4.27
2018-06-24T02:51:13.906Z,4.27
2018-06-24T02:53:18.249Z,3.90
2018-06-24T02:55:22.537Z,4.67
2018-06-24T02:57:26.850Z,4.07
2018-06-24T02:59:31.206Z,4.87
2018-06-24T03:01:35.551Z,4.00
2018-06-24T03:03:39.914Z,4.03
2018-06-24T03:05:44.164Z,4.50
2018-06-24T03:07:48.572Z,4.73
2018-06-24T03:09:52.890Z,4.00
2018-06-24T03:11:57.206Z,4.70
2018-06-24T03:14:01.602Z,3.80
2018-06-24T03:16:06.052Z,4.30
2018-06-24T03:18:10.512Z,4.07
2018-06-24T03:20:14.966Z,4.63
2018-06-24T03:22:19.407Z,5.10
2018-06-24T03:24:23.871Z,4.80
2018-06-24T03:26:28.482Z,5.17
2018-06-24T03:28:33.068Z,4.20
2018-06-24T03:30:37.626Z,5.27
2018-06-24T03:32:42.113Z,5.20
2018-06-24T03:34:46.390Z,4.43
2018-06-24T03:36:50.769Z,4.40
2018-06-24T03:38:55.092Z,4.70
2018-06-24T03:40:59.401Z,4.07
2018-06-24T03:43:03.722Z,4.73
2018-06-24T03:45:08.027Z,4.40
2018-06-24T03:47:12.295Z,3.90
2018-06-24T03:49:16.644Z,4.80
2018-06-24T03:51:20.936Z,4.20
2018-06-24T03:53:25.241Z,4.20
2018-06-24T03:55:29.586Z,4.30
2018-06-24T03:57:33.879Z,4.03
2018-06-24T03:59:38.170Z,4.53
2018-06-24T04:01:42.436Z,4.60
2018-06-24T04:03:46.850Z,4.20
2018-06-24T04:05:51.131Z,3.93
2018-06-24T04:07:55.536Z,4.07
2018-06-24T04:09:59.857Z,4.20
2018-06-24T04:12:04.305Z,4.30
2018-06-24T04:14:08.732Z,4.50
2018-06-24T04:16:13.067Z,4.60
2018-06-24T04:18:17.400Z,5.00
2018-06-24T04:20:21.730Z,4.70
2018-06-24T04:22:26.085Z,5.17
2018-06-24T04:24:30.441Z,4.83
2018-06-24T04:26:34.883Z,4.10
2018-06-24T04:28:39.666Z,4.80
2018-06-24T04:30:44.002Z,4.60
2018-06-24T04:32:48.334Z,4.50
2018-06-24T04:34:52.714Z,4.97
2018-06-24T04:36:57.044Z,5.47
2018-06-24T04:39:01.392Z,4.67
2018-06-24T04:41:05.775Z,4.27
2018-06-24T04:43:10.161Z,4.67
2018-06-24T04:45:14.519Z,5.10
2018-06-24T04:47:18.898Z,4.87
2018-06-24T04:49:23.278Z,4.57
2018-06-24T04:51:27.637Z,4.93
2018-06-24T04:53:32.006Z,4.87
2018-06-24T04:55:36.315Z,5.50
2018-06-24T04:57:40.645Z,5.10
2018-06-24T04:59:44.992Z,5.53
2018-06-24T05:01:49.323Z,5.30
2018-06-24T05:03:53.689Z,5.23
2018-06-24T05:05:58.060Z,5.17
2018-06-24T05:08:02.439Z,4.93
2018-06-24T05:10:06.863Z,4.87
2018-06-24T05:12:10.832Z,5.53
2018-06-24T05:14:15.119Z,8.20
2018-06-24T05:16:19.606Z,5.47
2018-06-24T05:18:23.900Z,7.00
2018-06-24T05:20:28.259Z,6.33
2018-06-24T05:22:32.613Z,7.17
2018-06-24T05:24:37.053Z,6.20
2018-06-24T05:26:41.361Z,6.00
2018-06-24T05:28:45.730Z,5.70
2018-06-24T05:30:50.075Z,5.07
2018-06-24T05:32:54.378Z,5.40
2018-06-24T05:34:58.832Z,5.00
2018-06-24T05:37:03.210Z,5.80
2018-06-24T05:39:10.091Z,5.40
2018-06-24T05:41:14.532Z,5.43
2018-06-24T05:43:18.909Z,7.70
2018-06-24T05:45:23.354Z,7.70
2018-06-24T05:47:27.826Z,7.53
2018-06-24T05:49:32.201Z,6.70
2018-06-24T05:51:36.543Z,6.43
2018-06-24T05:53:41.014Z,6.47
2018-06-24T05:55:45.452Z,6.70
2018-06-24T05:57:49.832Z,6.37
2018-06-24T05:59:54.383Z,6.43
2018-06-24T06:01:58.926Z,5.40
2018-06-24T06:04:03.299Z,5.67
2018-06-24T06:06:07.728Z,5.57
2018-06-24T06:08:12.264Z,5.07
2018-06-24T06:10:16.815Z,5.37
2018-06-24T06:12:21.049Z,5.00
2018-06-24T06:14:25.412Z,5.43
2018-06-24T06:16:29.779Z,5.43
2018-06-24T06:18:34.079Z,4.33
2018-06-24T06:20:38.649Z,4.90
2018-06-24T06:22:43.033Z,4.37
2018-06-24T06:24:47.499Z,5.40
2018-06-24T06:26:51.875Z,4.97
2018-06-24T06:28:56.333Z,4.97
2018-06-24T06:31:00.836Z,4.70
2018-06-24T06:33:05.365Z,4.97
2018-06-24T06:35:09.952Z,5.00
2018-06-24T06:37:14.335Z,5.00
2018-06-24T06:39:19.192Z,4.90
2018-06-24T06:41:23.952Z,4.93
2018-06-24T06:43:28.359Z,4.70
2018-06-24T06:45:32.993Z,4.47
2018-06-24T06:47:44.071Z,5.47
2018-06-24T06:49:48.457Z,5.40
2018-06-24T06:51:52.813Z,5.10
2018-06-24T06:53:57.188Z,5.47
2018-06-24T06:56:01.619Z,5.90
2018-06-24T06:58:06.242Z,5.80
2018-06-24T07:00:10.610Z,6.53
2018-06-24T07:02:15.024Z,5.80
2018-06-24T07:04:19.382Z,6.47
2018-06-24T07:06:23.710Z,6.03
2018-06-24T07:08:29.098Z,5.60
2018-06-24T07:10:33.730Z,6.20
2018-06-24T07:12:38.119Z,5.70
2018-06-24T07:14:42.558Z,5.80
2018-06-24T07:16:47.010Z,6.50
2018-06-24T07:18:51.374Z,7.00
2018-06-24T07:20:55.994Z,6.00
2018-06-24T07:23:00.336Z,5.73
2018-06-24T07:25:04.794Z,6.20
2018-06-24T07:27:09.420Z,5.60
2018-06-24T07:29:13.821Z,6.07
2018-06-24T07:31:19.023Z,5.87
2018-06-24T07:33:23.483Z,5.60
2018-06-24T07:35:27.858Z,6.03
2018-06-24T07:37:32.200Z,5.13
2018-06-24T07:39:36.485Z,6.37
2018-06-24T07:41:40.885Z,5.93
2018-06-24T07:43:45.259Z,6.03
2018-06-24T07:45:49.783Z,5.80
2018-06-24T07:47:54.208Z,6.07
2018-06-24T07:49:58.684Z,5.57
2018-06-24T07:52:03.283Z,5.20
2018-06-24T07:54:07.693Z,5.27
2018-06-24T07:56:12.082Z,6.40
2018-06-24T07:58:16.428Z,6.03
2018-06-24T08:00:20.820Z,5.00
2018-06-24T08:02:25.305Z,6.93
2018-06-24T08:04:29.705Z,6.57
2018-06-24T08:06:34.725Z,6.33
2018-06-24T08:08:39.124Z,6.80
2018-06-24T08:10:43.556Z,6.83
2018-06-24T08:12:47.953Z,8.03
2018-06-24T08:14:52.382Z,7.37
2018-06-24T08:16:56.842Z,7.10
2018-06-24T08:19:01.580Z,6.13
2018-06-24T08:21:06.135Z,6.53
2018-06-24T08:23:10.619Z,5.50
2018-06-24T08:25:14.981Z,5.67
2018-06-24T08:27:19.379Z,6.00
2018-06-24T08:29:23.845Z,5.47
2018-06-24T08:31:28.356Z,5.50
2018-06-24T08:33:32.875Z,4.50
2018-06-24T08:35:37.416Z,4.43
2018-06-24T08:37:41.966Z,4.10
2018-06-24T08:39:46.486Z,4.30
2018-06-24T08:41:50.965Z,4.23
2018-06-24T08:43:54.998Z,4.77
2018-06-24T08:46:00.179Z,4.10
2018-06-24T08:48:04.661Z,5.03
2018-06-24T08:50:10.260Z,4.23
2018-06-24T08:52:14.829Z,4.60
2018-06-24T08:54:21.847Z,6.60
2018-06-24T08:56:26.428Z,4.97
2018-06-24T08:58:31.272Z,6.70
2018-06-24T09:00:35.975Z,5.00
2018-06-24T09:02:40.469Z,5.57
2018-06-24T09:04:45.117Z,5.70
2018-06-24T09:06:49.570Z,4.87
2018-06-24T09:08:53.932Z,4.50
2018-06-24T09:10:58.323Z,4.20
2018-06-24T09:13:02.859Z,4.20
2018-06-24T09:15:08.423Z,4.20
2018-06-24T09:17:14.519Z,4.33
2018-06-24T09:19:18.948Z,4.00
2018-06-24T09:21:23.479Z,4.87
2018-06-24T09:23:28.167Z,4.47
2018-06-24T09:25:32.797Z,5.33
2018-06-24T09:27:37.350Z,4.90
2018-06-24T09:29:42.173Z,5.50
2018-06-24T09:31:47.808Z,4.90
2018-06-24T09:33:52.224Z,5.77
2018-06-24T09:35:58.604Z,4.70
2018-06-24T09:38:03.352Z,5.63
2018-06-24T09:40:08.885Z,5.30
2018-06-24T09:42:13.590Z,5.10
2018-06-24T09:44:17.912Z,5.60
2018-06-24T09:46:23.588Z,5.20
2018-06-24T09:48:28.148Z,4.60
2018-06-24T09:50:32.719Z,4.33
2018-06-24T09:52:37.244Z,4.80
2018-06-24T09:54:41.697Z,4.93
2018-06-24T09:56:46.193Z,4.50
2018-06-24T09:58:51.534Z,4.53
2018-06-24T10:00:56.059Z,4.20
2018-06-24T10:03:00.584Z,4.00
2018-06-24T10:05:05.183Z,4.20
2018-06-24T10:07:10.578Z,3.90
2018-06-24T10:09:15.432Z,4.20
2018-06-24T10:11:20.529Z,4.73
2018-06-24T10:13:25.111Z,3.90
2018-06-24T10:15:29.672Z,3.50
2018-06-24T10:17:35.258Z,3.50
2018-06-24T10:19:39.936Z,3.90
2018-06-24T10:21:44.679Z,3.53
2018-06-24T10:23:49.344Z,3.37
2018-06-24T10:25:54.017Z,4.10
2018-06-24T10:27:58.540Z,3.60
2018-06-24T10:30:03.126Z,3.67
2018-06-24T10:32:07.673Z,3.10
2018-06-24T10:34:12.228Z,3.07
2018-06-24T10:36:16.787Z,2.90
2018-06-24T10:38:21.266Z,2.67
2018-06-24T10:40:25.736Z,3.10
2018-06-24T10:42:30.246Z,3.13
2018-06-24T10:44:34.956Z,4.67
2018-06-24T10:46:39.387Z,3.97
2018-06-24T10:48:45.153Z,3.40
2018-06-24T10:50:49.784Z,2.70
2018-06-24T10:52:54.592Z,3.77
2018-06-24T10:54:58.991Z,3.03
2018-06-24T10:57:03.381Z,2.40
2018-06-24T10:59:07.988Z,3.10
2018-06-24T11:01:12.969Z,3.13
2018-06-24T11:03:17.775Z,3.10
2018-06-24T11:05:22.229Z,3.40
2018-06-24T11:07:26.858Z,3.37
2018-06-24T11:09:31.315Z,3.73
2018-06-24T11:11:35.744Z,3.20
2018-06-24T11:13:40.187Z,3.80
2018-06-24T11:15:44.615Z,3.70
2018-06-24T11:17:49.002Z,3.00
2018-06-24T11:19:53.409Z,3.70
2018-06-24T11:21:57.799Z,3.33
2018-06-24T11:24:02.230Z,3.20
2018-06-24T11:26:06.656Z,3.00
2018-06-24T11:28:11.170Z,3.50
2018-06-24T11:30:15.687Z,3.00
2018-06-24T11:32:20.097Z,2.87
2018-06-24T11:34:24.514Z,3.37
2018-06-24T11:36:28.895Z,3.20
2018-06-24T11:38:33.385Z,3.13
2018-06-24T11:40:37.861Z,3.20
2018-06-24T11:42:42.359Z,3.03
2018-06-24T11:44:46.912Z,2.93
2018-06-24T11:46:51.481Z,2.77
2018-06-24T11:48:56.230Z,3.20
2018-06-24T11:51:00.742Z,3.50
2018-06-24T11:53:05.286Z,3.10
2018-06-24T11:55:09.693Z,2.77
2018-06-24T11:57:14.100Z,2.97
2018-06-24T11:59:18.541Z,2.73
2018-06-24T12:01:23.009Z,2.77
2018-06-24T12:03:27.387Z,2.70
2018-06-24T12:05:31.763Z,3.40
2018-06-24T12:07:36.185Z,3.47
2018-06-24T12:09:40.697Z,3.63
2018-06-24T12:11:45.040Z,3.43
2018-06-24T12:13:50.061Z,3.00
2018-06-24T12:15:54.481Z,2.97
2018-06-24T12:17:59.258Z,3.37
2018-06-24T12:20:03.696Z,3.30
2018-06-24T12:22:08.165Z,2.57
2018-06-24T12:24:12.593Z,2.80
2018-06-24T12:26:16.983Z,2.83
2018-06-24T12:28:21.477Z,2.87
2018-06-24T12:30:26.676Z,3.07
2018-06-24T12:32:31.282Z,2.90
2018-06-24T12:34:35.789Z,2.87
2018-06-24T12:36:41.764Z,2.50
2018-06-24T12:38:46.468Z,3.03
2018-06-24T12:40:50.849Z,3.00
2018-06-24T12:42:55.406Z,3.00
2018-06-24T12:44:59.995Z,2.50
2018-06-24T12:47:04.526Z,3.20
2018-06-24T12:49:09.283Z,2.60
2018-06-24T12:51:13.671Z,2.80
2018-06-24T12:53:18.181Z,2.40
2018-06-24T12:55:22.662Z,2.87
2018-06-24T12:57:27.155Z,3.00
2018-06-24T12:59:31.806Z,2.87
2018-06-24T13:01:35.983Z,3.10
2018-06-24T13:03:40.358Z,2.77
2018-06-24T13:05:44.737Z,2.93
2018-06-24T13:07:49.133Z,3.00
2018-06-24T13:09:53.576Z,2.40
2018-06-24T13:11:58.054Z,3.10
2018-06-24T13:14:02.518Z,2.50
2018-06-24T13:16:06.908Z,2.53
2018-06-24T13:18:11.412Z,2.80
2018-06-24T13:20:15.880Z,2.97
2018-06-24T13:22:20.603Z,2.80
2018-06-24T13:24:25.417Z,2.57
2018-06-24T13:26:30.117Z,2.30
2018-06-24T13:28:34.950Z,2.60
2018-06-24T13:30:46.149Z,3.70
2018-06-24T13:32:50.965Z,2.63
2018-06-24T13:34:55.885Z,2.70
2018-06-24T13:37:00.700Z,3.10
2018-06-24T13:39:08.204Z,2.70
2018-06-24T13:41:13.425Z,2.87
2018-06-24T13:43:18.568Z,2.37
2018-06-24T13:45:23.374Z,2.93
2018-06-24T13:47:28.362Z,2.40
2018-06-24T13:49:33.123Z,2.50
2018-06-24T13:51:37.499Z,3.03
2018-06-24T13:53:41.970Z,2.70
2018-06-24T13:55:46.604Z,2.70
2018-06-24T13:57:50.649Z,2.93
2018-06-24T13:59:55.185Z,2.70
2018-06-24T14:01:59.657Z,2.37
2018-06-24T14:04:04.293Z,2.47
2018-06-24T14:06:08.748Z,2.50
2018-06-24T14:08:13.183Z,2.47
2018-06-24T14:10:17.695Z,3.03
2018-06-24T14:12:22.070Z,2.23
2018-06-24T14:14:26.448Z,2.00
2018-06-24T14:16:31.002Z,2.53
2018-06-24T14:18:35.360Z,2.50
2018-06-24T14:20:39.859Z,2.30
2018-06-24T14:22:44.350Z,2.00
2018-06-24T14:24:48.835Z,1.90
2018-06-24T14:26:53.206Z,1.80
2018-06-24T14:28:57.673Z,2.77
2018-06-24T14:31:02.065Z,2.70
2018-06-24T14:33:06.393Z,2.27
2018-06-24T14:35:10.852Z,4.20
2018-06-24T14:37:15.271Z,1.93
2018-06-24T14:39:19.593Z,2.07
2018-06-24T14:41:24.209Z,2.20
2018-06-24T14:43:28.640Z,3.17
2018-06-24T14:45:36.058Z,2.70
2018-06-24T14:47:40.467Z,2.40
2018-06-24T14:49:45.105Z,1.73
2018-06-24T14:51:49.666Z,2.13
2018-06-24T14:53:54.178Z,1.90
2018-06-24T14:55:58.712Z,2.00
2018-06-24T14:58:03.026Z,2.20
2018-06-24T15:00:07.425Z,2.40
2018-06-24T15:02:11.811Z,2.10
2018-06-24T15:04:16.221Z,2.00
2018-06-24T15:06:20.730Z,2.90
2018-06-24T15:08:25.063Z,2.60
2018-06-24T15:10:29.515Z,3.10
2018-06-24T15:12:34.007Z,2.13
2018-06-24T15:14:38.676Z,2.33
2018-06-24T15:16:43.169Z,2.33
2018-06-24T15:18:47.638Z,2.13
2018-06-24T15:20:52.071Z,2.10
2018-06-24T15:22:56.503Z,1.90
2018-06-24T15:25:01.030Z,2.70
2018-06-24T15:27:05.800Z,2.50
2018-06-24T15:29:10.233Z,2.53
2018-06-24T15:31:14.648Z,2.33
2018-06-24T15:33:18.985Z,2.03
2018-06-24T15:35:23.536Z,2.50
2018-06-24T15:37:27.966Z,2.70
2018-06-24T15:39:32.336Z,2.33
2018-06-24T15:41:36.786Z,3.27
2018-06-24T15:43:41.295Z,3.00
2018-06-24T15:45:45.777Z,2.60
2018-06-24T15:47:50.270Z,2.10
2018-06-24T15:49:54.705Z,2.60
2018-06-24T15:51:59.199Z,3.00
2018-06-24T15:54:03.673Z,2.40
2018-06-24T15:56:08.262Z,2.87
2018-06-24T15:58:13.125Z,2.90
2018-06-24T16:00:17.589Z,3.00
2018-06-24T16:02:22.159Z,3.63
2018-06-24T16:04:26.583Z,2.63
2018-06-24T16:06:31.423Z,2.80
2018-06-24T16:08:36.388Z,2.73
2018-06-24T16:10:41.504Z,3.00
2018-06-24T16:12:47.838Z,3.20
2018-06-24T16:14:52.466Z,2.73
2018-06-24T16:16:56.970Z,3.07
2018-06-24T16:19:01.400Z,3.23
2018-06-24T16:21:06.129Z,3.40
2018-06-24T16:23:11.340Z,3.13
2018-06-24T16:25:15.774Z,2.80
2018-06-24T16:27:21.539Z,3.20
2018-06-24T16:29:26.328Z,3.10
2018-06-24T16:31:30.916Z,4.40
2018-06-24T16:33:35.665Z,3.30
2018-06-24T16:35:40.064Z,3.50
2018-06-24T16:37:44.661Z,2.97
2018-06-24T16:39:49.082Z,3.77
2018-06-24T16:41:53.683Z,3.47
2018-06-24T16:43:58.166Z,4.17
2018-06-24T16:46:02.799Z,3.50
2018-06-24T16:48:09.481Z,3.23
2018-06-24T16:50:15.241Z,3.77
2018-06-24T16:52:20.423Z,3.97
2018-06-24T16:54:25.109Z,3.40
2018-06-24T16:56:30.524Z,4.07
2018-06-24T16:58:35.125Z,3.50
2018-06-24T17:00:39.717Z,3.90
2018-06-24T17:02:44.323Z,3.60
2018-06-24T17:04:48.704Z,3.73
2018-06-24T17:06:53.143Z,4.07
2018-06-24T17:08:59.465Z,5.77
2018-06-24T17:11:04.113Z,5.33
2018-06-24T17:13:08.561Z,5.40
2018-06-24T17:15:13.102Z,6.30
2018-06-24T17:17:17.432Z,7.07
2018-06-24T17:19:21.751Z,7.50
2018-06-24T17:21:26.246Z,7.87
2018-06-24T17:23:31.656Z,7.83
2018-06-24T17:25:36.165Z,7.70
2018-06-24T17:27:40.640Z,7.73
2018-06-24T17:29:45.113Z,8.23
2018-06-24T17:31:49.718Z,8.27
2018-06-24T17:33:54.381Z,8.53
2018-06-24T17:35:58.914Z,8.47
2018-06-24T17:38:03.437Z,8.53
2018-06-24T17:40:07.999Z,8.50
2018-06-24T17:42:12.582Z,10.30
2018-06-24T17:44:17.915Z,9.20
2018-06-24T17:46:22.402Z,8.73
2018-06-24T17:48:26.973Z,7.60
2018-06-24T17:50:31.457Z,8.87
2018-06-24T17:52:36.005Z,7.37
2018-06-24T17:54:40.489Z,7.77
2018-06-24T17:56:45.024Z,7.87
2018-06-24T17:58:49.409Z,8.00
2018-06-24T18:00:53.815Z,6.20
2018-06-24T18:02:58.250Z,6.40
2018-06-24T18:05:02.698Z,6.30
2018-06-24T18:07:08.187Z,6.03
2018-06-24T18:09:13.180Z,5.27
2018-06-24T18:11:17.863Z,5.30
2018-06-24T18:13:22.437Z,5.10
2018-06-24T18:15:27.554Z,4.90
2018-06-24T18:17:33.559Z,5.03
2018-06-24T18:19:38.196Z,5.00
2018-06-24T18:21:42.793Z,5.50
2018-06-24T18:23:47.492Z,4.37
2018-06-24T18:25:51.880Z,5.17
2018-06-24T18:27:57.215Z,4.40
2018-06-24T18:30:02.003Z,4.40
2018-06-24T18:32:06.450Z,6.37
2018-06-24T18:34:10.969Z,4.20
2018-06-24T18:36:15.446Z,4.23
2018-06-24T18:38:20.516Z,4.07
2018-06-24T18:40:25.198Z,4.17
2018-06-24T18:42:29.873Z,4.80
2018-06-24T18:44:34.354Z,4.00
2018-06-24T18:46:38.901Z,4.23
2018-06-24T18:48:43.452Z,4.53
2018-06-24T18:50:48.162Z,4.50
2018-06-24T18:52:53.039Z,4.60
2018-06-24T18:54:58.225Z,4.60
2018-06-24T18:57:03.058Z,4.10
2018-06-24T18:59:07.913Z,6.00
2018-06-24T19:01:12.665Z,4.07
2018-06-24T19:03:17.619Z,4.67
2018-06-24T19:05:24.962Z,4.10
2018-06-24T19:07:29.724Z,4.50
2018-06-24T19:09:34.383Z,3.70
2018-06-24T19:11:39.051Z,3.60
2018-06-24T19:13:44.906Z,3.90
2018-06-24T19:15:49.618Z,3.53
2018-06-24T19:17:54.386Z,3.80
2018-06-24T19:19:59.144Z,3.37
2018-06-24T19:22:03.768Z,4.33
2018-06-24T19:24:08.663Z,3.40
2018-06-24T19:26:13.389Z,4.00
2018-06-24T19:28:18.154Z,4.07
2018-06-24T19:30:22.947Z,3.40
2018-06-24T19:32:27.685Z,3.77
2018-06-24T19:34:31.978Z,3.30
2018-06-24T19:36:36.563Z,3.30
2018-06-24T19:38:41.347Z,3.67
2018-06-24T19:40:46.084Z,3.30
2018-06-24T19:42:50.722Z,3.83
2018-06-24T19:44:55.182Z,3.33
2018-06-24T19:46:59.763Z,3.20
2018-06-24T19:49:04.503Z,3.00
2018-06-24T19:51:09.159Z,2.70
2018-06-24T19:53:13.919Z,3.07
2018-06-24T19:55:18.901Z,3.50
2018-06-24T19:57:23.677Z,2.53
2018-06-24T19:59:28.466Z,2.60
2018-06-24T20:01:33.150Z,2.93
2018-06-24T20:03:37.843Z,3.13
2018-06-24T20:05:42.383Z,2.43
2018-06-24T20:07:46.737Z,2.70
2018-06-24T20:09:51.211Z,3.10
2018-06-24T20:11:55.629Z,3.00
2018-06-24T20:14:00.187Z,2.30
2018-06-24T20:16:04.707Z,2.60
2018-06-24T20:18:09.207Z,2.20
2018-06-24T20:20:14.113Z,3.03
2018-06-24T20:22:18.686Z,3.43
2018-06-24T20:24:23.108Z,2.90
2018-06-24T20:26:27.552Z,3.60
2018-06-24T20:28:32.197Z,3.70
2018-06-24T20:30:36.628Z,3.43
2018-06-24T20:32:41.156Z,3.07
2018-06-24T20:34:45.679Z,3.67
2018-06-24T20:36:50.229Z,3.80
2018-06-24T20:38:54.857Z,3.50
2018-06-24T20:40:59.255Z,3.50
2018-06-24T20:43:03.943Z,2.60
2018-06-24T20:45:09.003Z,2.97
2018-06-24T20:47:13.617Z,2.93
2018-06-24T20:49:18.145Z,3.00
2018-06-24T20:51:22.718Z,3.13
2018-06-24T20:53:27.071Z,2.70
2018-06-24T20:55:31.563Z,2.63
2018-06-24T20:57:36.082Z,2.57
2018-06-24T20:59:40.620Z,2.70
2018-06-24T21:01:45.126Z,2.50
2018-06-24T21:03:49.601Z,2.57
2018-06-24T21:05:55.347Z,2.43
2018-06-24T21:07:59.795Z,2.50
2018-06-24T21:10:04.336Z,2.93
2018-06-24T21:12:08.701Z,3.23
2018-06-24T21:14:13.244Z,3.13
2018-06-24T21:16:17.683Z,2.50
2018-06-24T21:18:22.102Z,3.27
2018-06-24T21:20:26.587Z,2.70
2018-06-24T21:22:31.276Z,2.87
2018-06-24T21:24:40.519Z,3.00
2018-06-24T21:26:44.892Z,3.50
2018-06-24T21:28:49.307Z,3.47
2018-06-24T21:30:53.745Z,3.00
2018-06-24T21:32:58.085Z,3.03
2018-06-24T21:35:02.531Z,2.83
2018-06-24T21:37:06.983Z,3.20
2018-06-24T21:39:11.381Z,3.40
2018-06-24T21:41:15.837Z,3.20
2018-06-24T21:43:20.153Z,3.60
2018-06-24T21:45:24.553Z,3.97
2018-06-24T21:47:28.939Z,4.07
2018-06-24T21:49:33.491Z,3.07
2018-06-24T21:51:37.935Z,3.33
2018-06-24T21:53:42.347Z,3.47
2018-06-24T21:55:46.733Z,4.10
2018-06-24T21:57:51.101Z,3.73
2018-06-24T21:59:55.496Z,4.60
2018-06-24T22:01:59.841Z,3.87
2018-06-24T22:04:04.282Z,3.70
2018-06-24T22:06:08.716Z,4.83
2018-06-24T22:08:13.204Z,3.83
2018-06-24T22:10:17.666Z,3.73
2018-06-24T22:12:22.028Z,4.23
2018-06-24T22:14:26.417Z,4.33
2018-06-24T22:16:30.849Z,3.57
2018-06-24T22:18:35.326Z,3.40
2018-06-24T22:20:39.754Z,3.90
2018-06-24T22:22:44.484Z,3.33
2018-06-24T22:24:48.966Z,3.60
2018-06-24T22:26:53.444Z,4.23
2018-06-24T22:28:57.806Z,4.00
2018-06-24T22:31:02.229Z,3.67
2018-06-24T22:33:06.580Z,4.20
2018-06-24T22:35:10.597Z,3.30
2018-06-24T22:37:14.867Z,4.00
2018-06-24T22:39:19.292Z,4.47
2018-06-24T22:41:23.767Z,4.40
2018-06-24T22:43:28.177Z,4.20
2018-06-24T22:45:32.719Z,4.67
2018-06-24T22:47:37.124Z,4.27
2018-06-24T22:49:41.462Z,4.20
2018-06-24T22:51:45.895Z,4.20
2018-06-24T22:53:50.302Z,4.20
2018-06-24T22:55:55.208Z,4.23
2018-06-24T22:57:59.571Z,5.97
2018-06-24T23:00:13.750Z,6.17
2018-06-24T23:02:17.842Z,7.73
2018-06-24T23:04:21.957Z,7.50
2018-06-24T23:06:26.435Z,7.53
2018-06-24T23:08:30.846Z,8.80
2018-06-24T23:10:35.349Z,7.60
2018-06-24T23:12:39.792Z,8.60
2018-06-24T23:14:44.202Z,8.63
2018-06-24T23:16:48.647Z,9.00
2018-06-24T23:18:52.961Z,7.47
2018-06-24T23:20:57.430Z,8.57
2018-06-24T23:23:01.871Z,10.00
2018-06-24T23:25:06.328Z,8.43
2018-06-24T23:27:10.777Z,8.50
2018-06-24T23:29:15.196Z,9.00
2018-06-24T23:31:19.609Z,8.37
2018-06-24T23:33:23.918Z,7.80
2018-06-24T23:35:28.296Z,8.27
2018-06-24T23:37:32.724Z,10.47
2018-06-24T23:39:37.232Z,9.07
2018-06-24T23:41:41.681Z,8.90
2018-06-24T23:43:46.002Z,9.10
2018-06-24T23:45:50.391Z,10.40
2018-06-24T23:47:54.941Z,10.10
2018-06-24T23:49:59.357Z,8.63
2018-06-24T23:52:03.776Z,9.50
2018-06-24T23:54:08.232Z,9.10
2018-06-24T23:56:12.655Z,10.20
2018-06-24T23:58:17.115Z,9.63
